createdAt,value
2018-09-17T00:01:49.092Z,99.90
2018-09-17T00:04:18.965Z,99.90
2018-09-17T00:06:49.168Z,99.90
2018-09-17T00:09:19.111Z,99.90
2018-09-17T00:11:48.950Z,99.90
2018-09-17T00:14:18.866Z,99.90
2018-09-17T00:16:48.703Z,99.90
2018-09-17T00:19:18.466Z,99.90
2018-09-17T00:21:48.119Z,99.90
2018-09-17T00:24:18.137Z,99.90
2018-09-17T00:26:48.310Z,99.90
2018-09-17T00:29:18.286Z,99.90
2018-09-17T00:31:48.370Z,99.90
2018-09-17T00:34:17.998Z,99.90
2018-09-17T00:36:48.047Z,99.90
2018-09-17T00:39:18.059Z,99.90
2018-09-17T00:41:47.824Z,99.90
2018-09-17T00:44:17.648Z,99.90
2018-09-17T00:47:02.056Z,99.90
2018-09-17T00:49:32.208Z,99.90
2018-09-17T00:52:02.031Z,99.90
2018-09-17T00:54:32.045Z,99.90
2018-09-17T00:57:01.941Z,99.90
2018-09-17T00:59:32.034Z,99.90
2018-09-17T01:02:02.282Z,99.90
2018-09-17T01:04:32.117Z,99.90
2018-09-17T01:07:01.857Z,99.90
2018-09-17T01:09:36.546Z,99.90
2018-09-17T01:12:06.292Z,99.90
2018-09-17T01:14:36.006Z,99.90
2018-09-17T01:17:05.715Z,99.90
2018-09-17T01:19:35.658Z,99.90
2018-09-17T01:22:05.508Z,99.90
2018-09-17T01:24:35.626Z,99.90
2018-09-17T01:27:05.499Z,99.90
2018-09-17T01:29:35.495Z,99.90
2018-09-17T01:32:05.245Z,99.90
2018-09-17T01:34:35.047Z,99.90
2018-09-17T01:37:04.846Z,99.90
2018-09-17T01:39:34.434Z,99.90
2018-09-17T01:42:04.234Z,99.90
2018-09-17T01:44:33.937Z,99.90
2018-09-17T01:47:03.780Z,99.90
2018-09-17T01:49:33.470Z,99.90
2018-09-17T01:52:03.362Z,99.90
2018-09-17T01:54:33.123Z,99.90
2018-09-17T01:57:03.046Z,99.90
2018-09-17T01:59:32.833Z,99.90
2018-09-17T02:02:02.560Z,99.90
2018-09-17T02:04:32.293Z,99.90
2018-09-17T02:07:01.922Z,99.90
2018-09-17T02:09:31.648Z,99.90
2018-09-17T02:12:01.298Z,99.90
2018-09-17T02:14:31.274Z,99.90
2018-09-17T02:17:01.110Z,99.90
2018-09-17T02:19:30.781Z,99.90
2018-09-17T02:22:00.872Z,99.90
2018-09-17T02:24:30.679Z,99.90
2018-09-17T02:27:00.441Z,99.90
2018-09-17T02:29:30.171Z,99.90
2018-09-17T02:32:00.012Z,99.90
2018-09-17T02:34:29.924Z,99.90
2018-09-17T02:36:59.706Z,99.90
2018-09-17T02:39:29.275Z,99.90
2018-09-17T02:41:59.200Z,99.90
2018-09-17T02:44:29.153Z,99.90
2018-09-17T02:46:58.893Z,99.90
2018-09-17T02:49:28.988Z,99.90
2018-09-17T02:51:58.652Z,99.90
2018-09-17T02:54:28.315Z,99.90
2018-09-17T02:56:58.288Z,99.90
2018-09-17T02:59:28.057Z,99.90
2018-09-17T03:01:57.941Z,99.90
2018-09-17T03:04:27.859Z,99.90
2018-09-17T03:06:57.774Z,99.90
2018-09-17T03:09:27.601Z,99.90
2018-09-17T03:11:57.395Z,99.90
2018-09-17T03:14:30.135Z,99.90
2018-09-17T03:17:13.934Z,99.90
2018-09-17T03:19:44.731Z,99.90
2018-09-17T03:22:15.635Z,99.90
2018-09-17T03:24:45.465Z,99.90
2018-09-17T03:27:15.074Z,99.90
2018-09-17T03:29:44.842Z,99.90
2018-09-17T03:32:14.555Z,99.90
2018-09-17T03:34:44.817Z,99.90
2018-09-17T03:37:14.537Z,99.90
2018-09-17T03:39:44.637Z,99.90
2018-09-17T03:42:14.609Z,99.90
2018-09-17T03:44:44.307Z,99.90
2018-09-17T03:47:14.103Z,99.90
2018-09-17T03:49:43.711Z,99.90
2018-09-17T03:52:13.443Z,99.90
2018-09-17T03:54:43.607Z,99.90
2018-09-17T03:57:13.558Z,99.90
2018-09-17T03:59:43.277Z,99.90
2018-09-17T04:02:13.019Z,99.90
2018-09-17T04:04:42.853Z,99.90
2018-09-17T04:07:12.688Z,99.90
2018-09-17T04:09:44.638Z,99.90
2018-09-17T04:12:15.705Z,99.90
2018-09-17T04:14:45.556Z,99.90
2018-09-17T04:17:15.382Z,99.90
2018-09-17T04:19:45.559Z,99.90
2018-09-17T04:22:15.354Z,99.90
2018-09-17T04:24:45.030Z,99.90
2018-09-17T04:27:14.807Z,99.90
2018-09-17T04:29:44.787Z,99.90
2018-09-17T04:32:14.552Z,99.90
2018-09-17T04:34:44.263Z,99.90
2018-09-17T04:37:13.921Z,99.90
2018-09-17T04:39:43.932Z,99.90
2018-09-17T04:42:13.699Z,99.90
2018-09-17T04:44:43.504Z,99.90
2018-09-17T04:47:13.326Z,99.90
2018-09-17T04:49:43.284Z,99.90
2018-09-17T04:52:13.062Z,99.90
2018-09-17T04:54:43.026Z,99.90
2018-09-17T04:57:12.916Z,99.90
2018-09-17T04:59:42.696Z,99.90
2018-09-17T05:02:12.642Z,99.90
2018-09-17T05:04:42.340Z,99.90
2018-09-17T05:07:12.323Z,99.90
2018-09-17T05:09:42.374Z,99.90
2018-09-17T05:12:12.315Z,99.90
2018-09-17T05:14:42.262Z,99.90
2018-09-17T05:17:12.203Z,99.90
2018-09-17T05:22:34.779Z,99.90
2018-09-17T05:25:04.572Z,99.90
2018-09-17T05:27:34.584Z,99.90
2018-09-17T05:30:04.639Z,99.90
2018-09-17T05:32:34.617Z,99.90
2018-09-17T05:35:04.428Z,99.90
2018-09-17T05:37:37.777Z,99.90
2018-09-17T05:40:07.819Z,99.90
2018-09-17T05:42:37.529Z,99.90
2018-09-17T05:45:07.854Z,99.90
2018-09-17T05:47:37.993Z,99.90
2018-09-17T05:50:08.180Z,99.90
2018-09-17T05:52:42.295Z,99.90
2018-09-17T05:55:12.100Z,99.90
2018-09-17T05:57:41.985Z,99.90
2018-09-17T06:00:11.935Z,99.90
2018-09-17T06:02:41.772Z,99.90
2018-09-17T06:05:12.023Z,99.90
2018-09-17T06:07:42.129Z,99.90
2018-09-17T06:10:14.740Z,99.90
2018-09-17T06:12:46.388Z,99.90
2018-09-17T06:15:16.594Z,99.90
2018-09-17T06:17:46.510Z,99.90
2018-09-17T06:20:16.462Z,99.90
2018-09-17T06:22:46.544Z,99.90
2018-09-17T06:25:16.705Z,99.90
2018-09-17T06:27:46.612Z,99.90
2018-09-17T06:30:16.336Z,99.90
2018-09-17T06:32:46.299Z,99.90
2018-09-17T06:35:16.220Z,99.90
2018-09-17T06:37:46.243Z,99.90
2018-09-17T06:40:16.166Z,99.90
2018-09-17T06:42:46.369Z,99.90
2018-09-17T06:45:16.034Z,99.90
2018-09-17T06:47:46.234Z,99.90
2018-09-17T06:50:16.122Z,99.90
2018-09-17T06:52:45.979Z,99.90
2018-09-17T06:55:15.712Z,99.90
2018-09-17T06:57:45.382Z,99.90
2018-09-17T07:00:15.312Z,99.90
2018-09-17T07:02:45.124Z,99.90
2018-09-17T07:05:14.942Z,99.90
2018-09-17T07:07:44.573Z,99.90
2018-09-17T07:10:14.286Z,99.90
2018-09-17T07:12:44.114Z,99.90
2018-09-17T07:15:14.012Z,99.90
2018-09-17T07:17:43.800Z,99.90
2018-09-17T07:20:13.855Z,99.90
2018-09-17T07:22:43.675Z,99.90
2018-09-17T07:25:13.413Z,99.90
2018-09-17T07:27:43.485Z,99.90
2018-09-17T07:30:13.648Z,99.90
2018-09-17T07:32:55.007Z,99.90
2018-09-17T07:35:26.128Z,99.90
2018-09-17T07:37:58.140Z,99.90
2018-09-17T07:40:29.067Z,99.90
2018-09-17T07:43:00.251Z,99.90
2018-09-17T07:45:31.162Z,99.90
2018-09-17T07:48:03.916Z,99.90
2018-09-17T07:50:35.565Z,99.90
2018-09-17T07:53:07.218Z,99.90
2018-09-17T07:55:39.413Z,99.90
2018-09-17T07:58:09.670Z,99.90
2018-09-17T08:00:40.772Z,99.90
2018-09-17T08:03:12.575Z,99.90
2018-09-17T08:05:44.158Z,99.90
2018-09-17T08:08:15.524Z,99.90
2018-09-17T08:10:45.627Z,99.90
2018-09-17T08:13:17.094Z,99.90
2018-09-17T08:15:48.816Z,99.90
2018-09-17T08:18:19.768Z,99.90
2018-09-17T08:20:50.908Z,99.90
2018-09-17T08:23:23.797Z,99.90
2018-09-17T08:25:57.782Z,99.90
2018-09-17T08:28:28.663Z,99.90
2018-09-17T08:31:00.482Z,99.90
2018-09-17T08:33:33.655Z,99.90
2018-09-17T08:36:03.721Z,99.90
2018-09-17T08:38:33.717Z,99.90
2018-09-17T08:41:03.731Z,99.90
2018-09-17T08:43:33.542Z,99.90
2018-09-17T08:46:03.485Z,99.90
2018-09-17T08:48:33.573Z,99.90
2018-09-17T08:51:05.493Z,99.90
2018-09-17T08:53:35.699Z,99.90
2018-09-17T08:56:10.738Z,99.90
2018-09-17T08:58:45.328Z,99.90
2018-09-17T09:01:20.955Z,99.90
2018-09-17T09:03:58.786Z,99.90
2018-09-17T09:06:33.569Z,99.90
2018-09-17T09:09:04.939Z,99.90
2018-09-17T09:11:40.666Z,99.90
2018-09-17T09:14:14.412Z,99.90
2018-09-17T09:16:44.214Z,99.90
2018-09-17T09:19:14.321Z,99.90
2018-09-17T09:21:44.344Z,99.90
2018-09-17T09:24:14.126Z,99.90
2018-09-17T09:26:44.220Z,99.90
2018-09-17T09:29:14.269Z,99.90
2018-09-17T09:31:44.115Z,99.90
2018-09-17T09:34:13.951Z,99.90
2018-09-17T09:36:44.384Z,99.90
2018-09-17T09:39:14.667Z,99.90
2018-09-17T09:41:44.969Z,99.90
2018-09-17T09:44:14.624Z,99.90
2018-09-17T09:46:44.670Z,99.90
2018-09-17T09:49:14.492Z,99.90
2018-09-17T09:51:44.227Z,99.90
2018-09-17T09:54:14.100Z,99.80
2018-09-17T09:56:43.780Z,99.10
2018-09-17T09:59:13.377Z,98.20
2018-09-17T10:01:48.386Z,98.90
2018-09-17T10:04:21.153Z,99.40
2018-09-17T10:06:51.575Z,99.20
2018-09-17T10:09:26.201Z,97.60
2018-09-17T10:12:01.246Z,97.60
2018-09-17T10:14:35.878Z,97.00
2018-09-17T10:17:10.684Z,97.00
2018-09-17T10:19:45.331Z,96.90
2018-09-17T10:22:15.169Z,97.50
2018-09-17T10:24:45.188Z,97.80
2018-09-17T10:27:15.466Z,95.50
2018-09-17T10:29:45.346Z,95.80
2018-09-17T10:32:15.295Z,95.20
2018-09-17T10:34:45.915Z,96.60
2018-09-17T10:37:15.744Z,95.60
2018-09-17T10:39:45.435Z,94.40
2018-09-17T10:42:15.558Z,94.00
2018-09-17T10:44:45.632Z,95.00
2018-09-17T10:47:15.738Z,95.70
2018-09-17T10:49:45.877Z,94.50
2018-09-17T10:52:16.296Z,94.30
2018-09-17T10:54:46.209Z,93.70
2018-09-17T10:57:16.100Z,94.80
2018-09-17T10:59:45.962Z,92.80
2018-09-17T11:02:15.957Z,94.00
2018-09-17T11:04:45.962Z,93.00
2018-09-17T11:07:15.785Z,93.70
2018-09-17T11:09:45.628Z,93.30
2018-09-17T11:12:15.567Z,93.00
2018-09-17T11:14:45.345Z,93.90
2018-09-17T11:17:15.668Z,95.70
2018-09-17T11:19:45.430Z,96.00
2018-09-17T11:22:15.316Z,96.10
2018-09-17T11:24:45.191Z,97.10
2018-09-17T11:27:15.256Z,98.30
2018-09-17T11:29:45.005Z,99.60
2018-09-17T11:32:14.791Z,97.60
2018-09-17T11:34:44.435Z,98.90
2018-09-17T11:37:17.838Z,97.60
2018-09-17T11:39:47.859Z,95.70
2018-09-17T11:42:17.850Z,95.40
2018-09-17T11:44:47.595Z,96.60
2018-09-17T11:47:17.451Z,95.60
2018-09-17T11:49:47.615Z,94.70
2018-09-17T11:52:17.840Z,94.90
2018-09-17T11:54:47.756Z,94.10
2018-09-17T11:57:18.055Z,93.20
2018-09-17T11:59:47.804Z,93.20
2018-09-17T12:02:24.388Z,95.70
2018-09-17T12:05:04.166Z,95.30
2018-09-17T12:07:40.391Z,93.90
2018-09-17T12:10:11.296Z,93.00
2018-09-17T12:12:41.376Z,92.30
2018-09-17T12:15:11.315Z,92.90
2018-09-17T12:17:41.090Z,91.70
2018-09-17T12:20:11.303Z,91.60
2018-09-17T12:22:41.164Z,91.70
2018-09-17T12:25:11.218Z,90.60
2018-09-17T12:27:41.012Z,91.50
2018-09-17T12:30:10.675Z,92.90
2018-09-17T12:32:40.787Z,92.40
2018-09-17T12:35:10.561Z,92.40
2018-09-17T12:37:40.581Z,93.10
2018-09-17T12:40:10.732Z,93.30
2018-09-17T12:42:40.433Z,93.00
2018-09-17T12:45:10.546Z,92.70
2018-09-17T12:47:40.846Z,92.80
2018-09-17T12:50:11.328Z,94.00
2018-09-17T12:52:41.161Z,95.00
2018-09-17T12:55:10.942Z,95.40
2018-09-17T12:57:41.098Z,95.20
2018-09-17T13:00:11.854Z,94.50
2018-09-17T13:02:42.283Z,95.90
2018-09-17T13:05:11.975Z,96.40
2018-09-17T13:07:41.812Z,96.80
2018-09-17T13:10:11.721Z,96.30
2018-09-17T13:12:41.943Z,96.60
2018-09-17T13:15:11.852Z,97.00
2018-09-17T13:17:41.615Z,96.80
2018-09-17T13:20:11.407Z,98.30
2018-09-17T13:22:41.463Z,96.50
2018-09-17T13:25:11.506Z,97.30
2018-09-17T13:27:41.203Z,96.20
2018-09-17T13:30:10.975Z,95.90
2018-09-17T13:32:40.647Z,95.70
2018-09-17T13:35:10.606Z,95.90
2018-09-17T13:37:40.801Z,95.60
2018-09-17T13:40:10.568Z,95.70
2018-09-17T13:42:40.416Z,96.00
2018-09-17T13:45:10.327Z,95.90
2018-09-17T13:47:40.132Z,96.80
2018-09-17T13:50:09.974Z,96.50
2018-09-17T13:52:39.705Z,96.70
2018-09-17T13:55:09.512Z,96.20
2018-09-17T13:57:39.460Z,96.70
2018-09-17T14:00:09.317Z,96.20
2018-09-17T14:02:39.073Z,96.90
2018-09-17T14:05:09.171Z,97.40
2018-09-17T14:07:39.499Z,98.90
2018-09-17T14:10:09.353Z,99.10
2018-09-17T14:12:39.296Z,99.50
2018-09-17T14:15:09.323Z,99.90
2018-09-17T14:17:39.229Z,99.90
2018-09-17T14:20:09.301Z,99.90
2018-09-17T14:22:39.035Z,99.90
2018-09-17T14:25:09.199Z,99.90
2018-09-17T14:27:39.241Z,99.90
2018-09-17T14:30:09.406Z,99.90
2018-09-17T14:32:44.439Z,99.90
2018-09-17T14:35:14.838Z,99.90
2018-09-17T14:37:45.124Z,99.90
2018-09-17T14:40:15.115Z,99.90
2018-09-17T14:42:44.943Z,99.90
2018-09-17T14:45:14.879Z,99.90
2018-09-17T14:47:44.828Z,99.90
2018-09-17T14:50:14.831Z,99.90
2018-09-17T14:52:44.556Z,99.90
2018-09-17T14:55:14.404Z,99.90
2018-09-17T14:57:44.207Z,99.90
2018-09-17T15:00:14.458Z,99.90
2018-09-17T15:02:44.421Z,99.90
2018-09-17T15:05:14.219Z,99.90
2018-09-17T15:07:44.048Z,99.90
2018-09-17T15:10:14.193Z,99.90
2018-09-17T15:12:44.161Z,99.90
2018-09-17T15:15:14.233Z,99.90
2018-09-17T15:17:44.075Z,99.90
2018-09-17T15:20:14.176Z,99.90
2018-09-17T15:22:43.959Z,99.90
2018-09-17T15:25:14.121Z,99.90
2018-09-17T15:27:43.949Z,99.90
2018-09-17T15:30:13.849Z,99.90
2018-09-17T15:32:43.887Z,99.90
2018-09-17T15:35:13.847Z,99.90
2018-09-17T15:37:51.205Z,99.90
2018-09-17T15:40:22.127Z,99.90
2018-09-17T15:42:53.248Z,99.90
2018-09-17T15:45:25.007Z,99.90
2018-09-17T15:47:55.928Z,99.90
2018-09-17T15:50:27.112Z,99.90
2018-09-17T15:52:58.541Z,99.90
2018-09-17T15:55:28.545Z,99.90
2018-09-17T15:57:58.447Z,99.90
2018-09-17T16:00:29.052Z,99.90
2018-09-17T16:03:02.425Z,99.90
2018-09-17T16:05:33.923Z,99.90
2018-09-17T16:08:05.451Z,99.90
2018-09-17T16:10:36.143Z,99.90
2018-09-17T16:13:06.376Z,99.90
2018-09-17T16:15:38.637Z,99.90
2018-09-17T16:18:08.787Z,99.90
2018-09-17T16:20:46.009Z,99.90
2018-09-17T16:23:16.285Z,99.90
2018-09-17T16:25:47.562Z,99.90
2018-09-17T16:28:17.474Z,99.90
2018-09-17T16:30:47.223Z,99.90
2018-09-17T16:33:17.321Z,99.90
2018-09-17T16:35:47.811Z,99.90
2018-09-17T16:38:17.587Z,99.90
2018-09-17T16:40:47.383Z,99.90
2018-09-17T16:43:17.184Z,99.90
2018-09-17T16:45:46.999Z,99.90
2018-09-17T16:48:17.300Z,99.90
2018-09-17T16:50:47.503Z,99.90
2018-09-17T16:53:17.616Z,99.90
2018-09-17T16:55:47.636Z,99.90
2018-09-17T16:58:17.369Z,99.90
2018-09-17T17:00:51.981Z,99.90
2018-09-17T17:03:22.637Z,99.90
2018-09-17T17:05:53.294Z,99.90
2018-09-17T17:08:24.181Z,99.90
2018-09-17T17:10:55.169Z,99.90
2018-09-17T17:13:26.019Z,99.90
2018-09-17T17:15:57.018Z,99.90
2018-09-17T17:18:26.729Z,99.90
2018-09-17T17:20:56.512Z,99.90
2018-09-17T17:23:26.553Z,99.90
2018-09-17T17:25:56.285Z,99.90
2018-09-17T17:28:26.500Z,99.90
2018-09-17T17:30:56.316Z,99.90
2018-09-17T17:33:26.065Z,99.90
2018-09-17T17:35:56.273Z,99.90
2018-09-17T17:38:26.223Z,99.90
2018-09-17T17:40:56.270Z,99.90
2018-09-17T17:43:26.278Z,99.90
2018-09-17T17:45:55.997Z,99.90
2018-09-17T17:48:26.077Z,99.90
2018-09-17T17:50:55.976Z,99.90
2018-09-17T17:53:25.930Z,99.90
2018-09-17T17:55:55.873Z,99.90
2018-09-17T17:58:26.020Z,99.90
2018-09-17T18:00:55.954Z,99.90
2018-09-17T18:03:25.753Z,99.90
2018-09-17T18:05:55.516Z,99.90
2018-09-17T18:08:25.390Z,99.90
2018-09-17T18:10:55.199Z,99.90
2018-09-17T18:13:25.218Z,99.90
2018-09-17T18:15:55.712Z,99.90
2018-09-17T18:18:25.965Z,99.90
2018-09-17T18:20:55.938Z,99.90
2018-09-17T18:23:25.693Z,99.90
2018-09-17T18:25:55.737Z,99.90
2018-09-17T18:28:25.643Z,99.90
2018-09-17T18:30:55.592Z,99.90
2018-09-17T18:33:25.357Z,99.90
2018-09-17T18:35:55.097Z,99.90
2018-09-17T18:38:24.937Z,99.90
2018-09-17T18:40:54.840Z,99.90
2018-09-17T18:43:24.857Z,99.90
2018-09-17T18:45:54.973Z,99.90
2018-09-17T18:48:24.862Z,99.90
2018-09-17T18:50:54.988Z,99.90
2018-09-17T18:53:24.911Z,99.90
2018-09-17T18:55:54.725Z,99.90
2018-09-17T18:58:24.598Z,99.90
2018-09-17T19:00:54.572Z,99.90
2018-09-17T19:03:24.468Z,99.90
2018-09-17T19:05:54.713Z,99.90
2018-09-17T19:08:24.656Z,99.90
2018-09-17T19:10:54.696Z,99.90
2018-09-17T19:13:24.522Z,99.90
2018-09-17T19:15:56.511Z,99.90
2018-09-17T19:18:26.546Z,99.90
2018-09-17T19:20:56.479Z,99.90
2018-09-17T19:23:31.173Z,99.90
2018-09-17T19:26:01.367Z,99.90
2018-09-17T19:28:36.198Z,99.90
2018-09-17T19:31:06.447Z,99.90
2018-09-17T19:33:36.463Z,99.90
2018-09-17T19:36:07.494Z,99.90
2018-09-17T19:38:43.498Z,99.90
2018-09-17T19:41:13.735Z,99.90
2018-09-17T19:43:43.818Z,99.90
2018-09-17T19:46:18.466Z,99.90
2018-09-17T19:48:49.067Z,99.90
2018-09-17T19:51:24.969Z,99.90
2018-09-17T19:53:54.751Z,99.90
2018-09-17T19:56:24.980Z,99.90
2018-09-17T19:59:00.362Z,99.90
2018-09-17T20:01:30.443Z,99.90
2018-09-17T20:04:05.040Z,99.90
2018-09-17T20:06:35.114Z,99.90
2018-09-17T20:09:05.662Z,99.90
2018-09-17T20:11:36.671Z,99.90
2018-09-17T20:14:07.069Z,99.90
2018-09-17T20:16:36.941Z,99.90
2018-09-17T20:19:07.082Z,99.90
2018-09-17T20:21:36.955Z,99.90
2018-09-17T20:24:06.724Z,99.90
2018-09-17T20:26:37.157Z,99.90
2018-09-17T20:29:07.032Z,99.90
2018-09-17T20:31:37.208Z,99.90
2018-09-17T20:34:07.251Z,99.90
2018-09-17T20:36:38.051Z,99.90
2018-09-17T20:39:10.005Z,99.90
2018-09-17T20:41:40.559Z,99.90
2018-09-17T20:44:10.430Z,99.90
2018-09-17T20:46:40.293Z,99.90
2018-09-17T20:49:11.622Z,99.90
2018-09-17T20:51:42.988Z,99.90
2018-09-17T20:54:14.655Z,99.90
2018-09-17T20:56:47.084Z,99.90
2018-09-17T20:59:17.030Z,99.90
2018-09-17T21:01:48.152Z,99.90
2018-09-17T21:04:20.604Z,99.90
2018-09-17T21:06:52.192Z,99.90
2018-09-17T21:09:23.619Z,99.90
2018-09-17T21:11:54.361Z,99.90
2018-09-17T21:14:26.497Z,99.90
2018-09-17T21:17:01.786Z,99.90
2018-09-17T21:19:34.274Z,99.90
2018-09-17T21:22:05.222Z,99.90
2018-09-17T21:24:36.941Z,99.90
2018-09-17T21:27:09.339Z,99.90
2018-09-17T21:29:41.700Z,99.90
2018-09-17T21:32:13.804Z,99.90
2018-09-17T21:34:46.759Z,99.90
2018-09-17T21:37:18.358Z,99.90
2018-09-17T21:39:50.896Z,99.90
2018-09-17T21:42:21.054Z,99.90
2018-09-17T21:44:51.452Z,99.90
2018-09-17T21:47:21.393Z,99.90
2018-09-17T21:49:51.306Z,99.90
2018-09-17T21:52:21.181Z,99.90
2018-09-17T21:54:51.341Z,99.90
2018-09-17T21:57:21.211Z,99.90
2018-09-17T21:59:51.289Z,99.90
2018-09-17T22:02:21.201Z,99.90
2018-09-17T22:04:51.167Z,99.90
2018-09-17T22:07:20.970Z,99.90
2018-09-17T22:09:50.911Z,99.90
2018-09-17T22:12:21.119Z,99.90
2018-09-17T22:14:51.094Z,99.90
2018-09-17T22:17:21.102Z,99.90
2018-09-17T22:19:50.912Z,99.90
2018-09-17T22:22:21.033Z,99.90
2018-09-17T22:24:51.056Z,99.90
2018-09-17T22:27:20.959Z,99.90
2018-09-17T22:29:50.863Z,99.90
2018-09-17T22:32:20.630Z,99.90
2018-09-17T22:34:50.515Z,99.90
2018-09-17T22:37:20.714Z,99.90
2018-09-17T22:39:50.695Z,99.90
2018-09-17T22:42:20.507Z,99.90
2018-09-17T22:44:50.273Z,99.90
2018-09-17T22:47:22.291Z,99.90
2018-09-17T22:49:51.861Z,99.90
2018-09-17T22:52:23.938Z,99.90
2018-09-17T22:54:53.796Z,99.90
2018-09-17T22:57:23.562Z,99.90
2018-09-17T22:59:53.373Z,99.90
2018-09-17T23:02:23.654Z,99.90
2018-09-17T23:04:53.355Z,99.90
2018-09-17T23:07:23.308Z,99.90
2018-09-17T23:09:53.074Z,99.90
2018-09-17T23:12:22.882Z,99.90
2018-09-17T23:14:52.835Z,99.90
2018-09-17T23:17:22.800Z,99.90
2018-09-17T23:19:53.393Z,99.90
2018-09-17T23:22:23.367Z,99.90
2018-09-17T23:24:53.216Z,99.90
2018-09-17T23:27:23.179Z,99.90
2018-09-17T23:29:52.943Z,99.90
2018-09-17T23:32:22.973Z,99.90
2018-09-17T23:34:52.698Z,99.90
2018-09-17T23:37:23.451Z,99.90
2018-09-17T23:39:53.677Z,99.90
2018-09-17T23:42:23.843Z,99.90
2018-09-17T23:44:53.691Z,99.90
2018-09-17T23:47:23.779Z,99.90
2018-09-17T23:49:53.997Z,99.90
2018-09-17T23:52:23.921Z,99.90
2018-09-17T23:54:53.757Z,99.90
2018-09-17T23:57:23.580Z,99.90
2018-09-17T23:59:53.523Z,99.90
